Time;durP1;ratioP1;P1;durP2;ratioP2;P2;SDS_P1;SDS_P2;PMS_P1;PMS_P2;Temp;Humidity;BMP_temperature;BMP_pressure;BME280_temperature;BME280_humidity;BME280_pressure;Samples;Min_cycle;Max_cycle;Signal;HPM_P1;HPM_P2
2022/09/09 00:00:19;;;;;;;11.57;5.28;;;;;;;;;;5025673;28;20057;-58
2022/09/09 00:02:47;;;;;;;8.95;5.40;;;;;;;;;;5025125;28;20562;-58
2022/09/09 00:05:14;;;;;;;10.55;5.88;;;;;;;;;;5024810;28;20399;-58
2022/09/09 00:07:47;;;;;;;8.60;5.38;;;;;;;;;;5023114;28;20049;-58
2022/09/09 00:10:15;;;;;;;8.63;4.57;;;;;;;;;;5025515;28;20060;-58
2022/09/09 00:12:55;;;;;;;8.05;5.03;;;;;;;;;;5024899;28;20129;-58
2022/09/09 00:15:23;;;;;;;9.63;5.05;;;;;;;;;;5031189;28;20049;-58
2022/09/09 00:17:49;;;;;;;;;;;;;;;;;;5032599;28;20072;-58
2022/09/09 00:20:20;;;;;;;25.60;4.95;;;;;;;;;;5024553;28;20310;-58
2022/09/09 00:22:49;;;;;;;11.07;5.50;;;;;;;;;;5024863;28;20063;-59
2022/09/09 00:25:21;;;;;;;11.80;6.18;;;;;;;;;;5024939;28;20041;-58
2022/09/09 00:27:48;;;;;;;10.00;6.10;;;;;;;;;;5025170;28;20037;-58
2022/09/09 00:30:19;;;;;;;15.07;6.43;;;;;;;;;;5023805;28;20727;-58
2022/09/09 00:32:46;;;;;;;12.38;5.68;;;;;;;;;;5024592;28;20160;-58
2022/09/09 00:35:23;;;;;;;13.35;5.32;;;;;;;;;;5024328;28;20049;-58
2022/09/09 00:37:51;;;;;;;7.95;5.15;;;;;;;;;;5023546;28;20064;-58
2022/09/09 00:40:27;;;;;;;13.30;5.05;;;;;;;;;;5024211;28;20053;-58
2022/09/09 00:43:10;;;;;;;10.95;5.47;;;;;;;;;;5024670;28;20046;-58
2022/09/09 00:45:42;;;;;;;11.27;5.40;;;;;;;;;;5024647;28;20038;-58
2022/09/09 00:48:12;;;;;;;9.85;4.95;;;;;;;;;;5024718;28;20071;-58
2022/09/09 00:50:55;;;;;;;11.35;5.50;;;;;;;;;;5021975;28;20042;-58
2022/09/09 00:53:22;;;;;;;8.15;5.15;;;;;;;;;;5024956;28;20081;-58
2022/09/09 00:55:57;;;;;;;8.73;5.63;;;;;;;;;;5023768;28;20454;-58
2022/09/09 00:58:23;;;;;;;13.35;5.75;;;;;;;;;;5024052;28;20052;-58
2022/09/09 01:00:53;;;;;;;12.57;5.15;;;;;;;;;;5023919;28;20045;-58
2022/09/09 01:03:25;;;;;;;9.27;5.82;;;;;;;;;;5024198;28;20435;-58
2022/09/09 01:06:02;;;;;;;13.20;5.45;;;;;;;;;;5024276;28;20470;-58
2022/09/09 01:08:35;;;;;;;10.75;4.85;;;;;;;;;;5024230;28;20396;-58
2022/09/09 01:11:02;;;;;;;12.77;6.18;;;;;;;;;;5035801;28;20091;-58
2022/09/09 01:13:30;;;;;;;8.40;5.07;;;;;;;;;;5045840;23;20606;-57
2022/09/09 01:15:59;;;;;;;14.93;5.32;;;;;;;;;;5044764;28;20060;-57
2022/09/09 01:18:28;;;;;;;10.38;5.13;;;;;;;;;;5043567;28;20391;-57
2022/09/09 01:21:05;;;;;;;13.02;5.57;;;;;;;;;;5044187;28;20048;-57
2022/09/09 01:23:36;;;;;;;10.17;5.00;;;;;;;;;;5030290;28;20049;-57
2022/09/09 01:26:02;;;;;;;11.95;5.45;;;;;;;;;;5043969;28;20049;-57
2022/09/09 01:28:29;;;;;;;10.20;5.32;;;;;;;;;;5044010;28;20053;-57
2022/09/09 01:30:56;;;;;;;7.20;4.90;;;;;;;;;;5044232;28;20754;-57
2022/09/09 01:33:22;;;;;;;10.07;4.63;;;;;;;;;;5042979;28;20052;-57
2022/09/09 01:36:00;;;;;;;8.13;5.35;;;;;;;;;;5043415;28;20788;-57
2022/09/09 01:38:27;;;;;;;11.57;4.97;;;;;;;;;;5044074;28;20091;-57
2022/09/09 01:40:53;;;;;;;13.30;5.80;;;;;;;;;;5043224;28;20053;-57
2022/09/09 01:43:22;;;;;;;10.88;5.57;;;;;;;;;;5044047;28;20486;-57
2022/09/09 01:45:48;;;;;;;;;;;;;;;;;;5043856;28;20041;-57
2022/09/09 01:48:14;;;;;;;12.88;5.05;;;;;;;;;;5042577;28;20374;-59
2022/09/09 01:50:40;;;;;;;13.02;5.78;;;;;;;;;;5042985;28;20036;-57
2022/09/09 01:53:06;;;;;;;10.65;4.88;;;;;;;;;;5043858;28;20075;-57
2022/09/09 01:55:36;;;;;;;11.35;4.80;;;;;;;;;;5042809;28;20049;-57
2022/09/09 01:58:15;;;;;;;11.57;4.60;;;;;;;;;;5043707;28;20045;-57
2022/09/09 02:00:48;;;;;;;11.60;5.43;;;;;;;;;;5042448;28;20072;-57
2022/09/09 02:03:22;;;;;;;10.73;4.60;;;;;;;;;;5043021;28;20043;-57
2022/09/09 02:05:48;;;;;;;9.20;4.97;;;;;;;;;;5042986;28;20077;-57
2022/09/09 02:08:18;;;;;;;11.00;4.63;;;;;;;;;;5043300;28;20037;-57
2022/09/09 02:10:48;;;;;;;10.88;4.65;;;;;;;;;;5042665;28;20037;-57
2022/09/09 02:13:15;;;;;;;11.23;4.70;;;;;;;;;;5042928;28;20056;-57
2022/09/09 02:15:49;;;;;;;12.23;4.80;;;;;;;;;;5042855;28;20064;-57
2022/09/09 02:18:18;;;;;;;8.50;4.32;;;;;;;;;;5029274;28;20394;-57
2022/09/09 02:20:45;;;;;;;9.88;4.43;;;;;;;;;;5042775;28;20040;-57
2022/09/09 02:23:11;;;;;;;10.25;4.22;;;;;;;;;;5042402;28;20048;-57
2022/09/09 02:25:39;;;;;;;8.60;3.80;;;;;;;;;;5042583;28;20044;-57
2022/09/09 02:28:07;;;;;;;11.55;4.30;;;;;;;;;;5042889;28;20067;-57
2022/09/09 02:30:34;;;;;;;13.50;4.10;;;;;;;;;;5042782;28;20044;-57
2022/09/09 02:33:01;;;;;;;14.00;4.70;;;;;;;;;;5042680;28;20060;-57
2022/09/09 02:35:30;;;;;;;8.23;4.20;;;;;;;;;;5042189;28;20755;-56
2022/09/09 02:37:59;;;;;;;11.60;3.92;;;;;;;;;;5042454;28;20044;-57
2022/09/09 02:40:25;;;;;;;9.80;5.22;;;;;;;;;;5041775;28;20080;-57
2022/09/09 02:42:51;;;;;;;19.58;4.75;;;;;;;;;;5042373;28;20080;-57
2022/09/09 02:45:19;;;;;;;13.57;4.43;;;;;;;;;;5042189;28;20060;-56
2022/09/09 02:47:56;;;;;;;8.20;4.28;;;;;;;;;;5028676;28;20045;-57
2022/09/09 02:50:25;;;;;;;8.45;4.45;;;;;;;;;;5027821;28;20063;-57
2022/09/09 02:52:51;;;;;;;9.90;4.55;;;;;;;;;;5042426;28;20097;-57
2022/09/09 02:55:21;;;;;;;11.18;4.22;;;;;;;;;;5037031;28;20037;-57
2022/09/09 02:57:48;;;;;;;7.75;4.28;;;;;;;;;;5033532;28;20049;-57
2022/09/09 03:00:14;;;;;;;9.68;3.70;;;;;;;;;;5041808;28;20041;-57
2022/09/09 03:02:42;;;;;;;11.30;4.28;;;;;;;;;;5041861;28;20416;-57
2022/09/09 03:05:08;;;;;;;15.05;4.05;;;;;;;;;;5025317;28;20479;-57
2022/09/09 03:07:34;;;;;;;9.30;3.80;;;;;;;;;;5022293;28;20546;-57
2022/09/09 03:10:01;;;;;;;6.88;3.72;;;;;;;;;;5022241;28;20062;-57
2022/09/09 03:12:27;;;;;;;7.20;3.80;;;;;;;;;;5022228;28;20042;-58
2022/09/09 03:14:53;;;;;;;9.48;3.42;;;;;;;;;;5033618;28;20061;-57
2022/09/09 03:17:19;;;;;;;9.25;3.58;;;;;;;;;;5041710;28;20486;-57
2022/09/09 03:19:45;;;;;;;7.45;3.80;;;;;;;;;;5040974;28;20552;-57
2022/09/09 03:22:13;;;;;;;7.00;4.07;;;;;;;;;;5026003;28;20076;-57
2022/09/09 03:24:40;;;;;;;7.63;3.85;;;;;;;;;;5022148;28;20128;-57
2022/09/09 03:27:06;;;;;;;8.35;3.65;;;;;;;;;;5021649;28;20056;-57
2022/09/09 03:29:32;;;;;;;9.77;4.00;;;;;;;;;;5022164;28;20053;-57
2022/09/09 03:31:59;;;;;;;7.93;3.88;;;;;;;;;;5022506;28;20050;-58
2022/09/09 03:34:25;;;;;;;8.23;3.80;;;;;;;;;;5020982;28;20048;-57
2022/09/09 03:36:51;;;;;;;7.10;3.60;;;;;;;;;;5022064;28;20045;-57
2022/09/09 03:39:17;;;;;;;8.13;3.38;;;;;;;;;;5021725;28;20244;-57
2022/09/09 03:41:46;;;;;;;8.90;3.67;;;;;;;;;;5021624;28;20065;-57
2022/09/09 03:44:12;;;;;;;;;;;;;;;;;;5020847;28;20057;-57
2022/09/09 03:46:38;;;;;;;6.75;3.20;;;;;;;;;;5021931;28;19921;-57
2022/09/09 03:49:04;;;;;;;18.92;3.17;;;;;;;;;;5031956;28;20041;-57
2022/09/09 03:51:30;;;;;;;7.63;3.85;;;;;;;;;;5041204;28;20140;-58
2022/09/09 03:53:58;;;;;;;7.32;3.22;;;;;;;;;;5032379;28;20069;-57
2022/09/09 03:56:24;;;;;;;9.48;3.50;;;;;;;;;;5022168;28;20626;-57
2022/09/09 03:58:50;;;;;;;11.02;4.32;;;;;;;;;;5033306;28;20048;-57
2022/09/09 04:01:17;;;;;;;11.68;4.30;;;;;;;;;;5021451;28;20129;-57
2022/09/09 04:03:44;;;;;;;7.45;4.15;;;;;;;;;;5020643;28;20072;-57
2022/09/09 04:06:13;;;;;;;10.40;4.45;;;;;;;;;;5022020;28;20445;-56
2022/09/09 04:08:40;;;;;;;11.15;4.20;;;;;;;;;;5021552;28;20517;-57
2022/09/09 04:11:06;;;;;;;8.73;4.57;;;;;;;;;;5021402;28;20053;-57
2022/09/09 04:13:34;;;;;;;6.18;4.03;;;;;;;;;;5021431;28;20053;-57
2022/09/09 04:16:02;;;;;;;10.45;4.43;;;;;;;;;;5021895;28;20514;-57
2022/09/09 04:18:28;;;;;;;8.50;4.07;;;;;;;;;;5020764;28;20045;-57
2022/09/09 04:20:56;;;;;;;9.60;4.63;;;;;;;;;;5021996;28;20044;-57
2022/09/09 04:23:23;;;;;;;;;;;;;;;;;;5022080;28;20045;-57
2022/09/09 04:25:51;;;;;;;9.45;4.68;;;;;;;;;;5023864;28;19929;-57
2022/09/09 04:28:18;;;;;;;8.57;4.57;;;;;;;;;;5024986;28;20081;-56
2022/09/09 04:30:45;;;;;;;15.07;4.30;;;;;;;;;;5024528;28;20048;-57
2022/09/09 04:33:11;;;;;;;10.10;5.13;;;;;;;;;;5023471;28;20041;-57
2022/09/09 04:35:38;;;;;;;8.32;4.50;;;;;;;;;;5024562;28;20052;-57
2022/09/09 04:38:05;;;;;;;15.50;5.05;;;;;;;;;;5024643;28;20128;-57
2022/09/09 04:40:31;;;;;;;9.43;5.43;;;;;;;;;;5024632;28;20072;-57
2022/09/09 04:42:59;;;;;;;10.82;5.88;;;;;;;;;;5025276;28;20108;-56
2022/09/09 04:45:26;;;;;;;11.50;5.30;;;;;;;;;;5025238;28;20483;-57
2022/09/09 04:47:52;;;;;;;12.27;6.72;;;;;;;;;;5038665;28;20120;-56
2022/09/09 04:50:18;;;;;;;11.18;5.85;;;;;;;;;;5044779;28;20486;-57
2022/09/09 04:52:45;;;;;;;12.77;5.63;;;;;;;;;;5043679;28;20500;-57
2022/09/09 04:55:12;;;;;;;10.15;6.00;;;;;;;;;;5024957;28;20033;-57
2022/09/09 04:57:38;;;;;;;15.95;6.63;;;;;;;;;;5024229;28;20705;-57
2022/09/09 05:00:05;;;;;;;10.80;5.82;;;;;;;;;;5024642;28;20496;-57
2022/09/09 05:02:32;;;;;;;13.27;6.05;;;;;;;;;;5023286;28;20052;-57
2022/09/09 05:04:58;;;;;;;11.38;6.30;;;;;;;;;;5024066;28;20048;-57
2022/09/09 05:07:26;;;;;;;12.20;6.40;;;;;;;;;;5024630;28;20124;-57
2022/09/09 05:09:52;;;;;;;9.55;5.85;;;;;;;;;;5024373;28;20479;-57
2022/09/09 05:12:19;;;;;;;12.13;6.00;;;;;;;;;;5024251;28;20079;-57
2022/09/09 05:14:45;;;;;;;14.35;5.75;;;;;;;;;;5023746;28;20725;-57
2022/09/09 05:17:11;;;;;;;11.52;5.65;;;;;;;;;;5023274;28;20057;-57
2022/09/09 05:19:37;;;;;;;9.90;6.60;;;;;;;;;;5026829;28;20040;-57
2022/09/09 05:22:04;;;;;;;9.45;6.03;;;;;;;;;;5032354;28;20116;-57
2022/09/09 05:24:33;;;;;;;11.20;5.72;;;;;;;;;;5028328;28;20148;-58
2022/09/09 05:27:01;;;;;;;11.07;5.90;;;;;;;;;;5026644;28;20041;-58
2022/09/09 05:29:27;;;;;;;;;;;;;;;;;;5035135;28;20175;-57
2022/09/09 05:31:54;;;;;;;13.93;6.00;;;;;;;;;;5028106;28;19921;-57
2022/09/09 05:34:20;;;;;;;10.10;5.20;;;;;;;;;;5028731;28;20052;-57
2022/09/09 05:36:47;;;;;;;10.65;5.85;;;;;;;;;;5032271;28;20088;-57
2022/09/09 05:39:13;;;;;;;9.52;5.22;;;;;;;;;;5025239;28;20085;-56
2022/09/09 05:41:39;;;;;;;12.68;5.80;;;;;;;;;;5028133;28;20046;-57
2022/09/09 05:44:06;;;;;;;9.65;5.15;;;;;;;;;;5025756;28;20049;-57
2022/09/09 05:46:32;;;;;;;12.05;5.95;;;;;;;;;;5021319;28;20049;-57
2022/09/09 05:48:59;;;;;;;8.48;5.65;;;;;;;;;;5027531;28;20450;-57
2022/09/09 05:51:27;;;;;;;12.13;5.93;;;;;;;;;;5039716;28;20056;-57
2022/09/09 05:53:56;;;;;;;10.38;5.50;;;;;;;;;;5042434;28;20041;-56
2022/09/09 05:56:24;;;;;;;15.13;5.82;;;;;;;;;;5042665;28;20045;-56
2022/09/09 05:58:51;;;;;;;11.70;5.72;;;;;;;;;;5042252;28;20072;-57
2022/09/09 06:01:19;;;;;;;12.52;6.07;;;;;;;;;;5042788;28;20127;-57
2022/09/09 06:03:45;;;;;;;10.35;4.95;;;;;;;;;;5041456;28;20052;-56
2022/09/09 06:06:13;;;;;;;8.35;5.20;;;;;;;;;;5041050;28;20510;-57
2022/09/09 06:08:40;;;;;;;8.93;5.40;;;;;;;;;;5042100;28;20041;-57
2022/09/09 06:11:08;;;;;;;9.73;5.57;;;;;;;;;;5043122;28;20052;-57
2022/09/09 06:13:36;;;;;;;12.20;5.68;;;;;;;;;;5042207;28;20167;-56
2022/09/09 06:16:04;;;;;;;10.18;5.38;;;;;;;;;;5042328;28;20041;-57
2022/09/09 06:18:30;;;;;;;11.25;5.45;;;;;;;;;;5041609;28;20090;-57
2022/09/09 06:20:57;;;;;;;10.48;5.32;;;;;;;;;;5043068;28;20036;-57
2022/09/09 06:23:23;;;;;;;11.27;5.75;;;;;;;;;;5042581;28;20602;-57
2022/09/09 06:25:50;;;;;;;11.50;5.35;;;;;;;;;;5042647;28;20045;-57
2022/09/09 06:28:17;;;;;;;8.38;5.15;;;;;;;;;;5042413;28;20045;-57
2022/09/09 06:30:44;;;;;;;10.43;5.38;;;;;;;;;;5042507;28;20585;-57
2022/09/09 06:33:10;;;;;;;8.88;4.90;;;;;;;;;;5041734;28;20037;-56
2022/09/09 06:35:36;;;;;;;15.88;5.57;;;;;;;;;;5041238;28;20033;-57
2022/09/09 06:38:03;;;;;;;9.88;5.53;;;;;;;;;;5042214;28;20778;-57
2022/09/09 06:40:30;;;;;;;11.30;5.97;;;;;;;;;;5041152;28;20110;-57
2022/09/09 06:43:00;;;;;;;15.88;5.88;;;;;;;;;;5042262;28;20143;-56
2022/09/09 06:45:27;;;;;;;9.82;5.00;;;;;;;;;;5041293;28;20057;-57
2022/09/09 06:47:55;;;;;;;11.38;5.32;;;;;;;;;;5040317;28;20040;-56
2022/09/09 06:50:21;;;;;;;;;;;;;;;;;;5042128;28;21099;-57
2022/09/09 06:52:47;;;;;;;9.18;4.93;;;;;;;;;;5027494;28;19921;-56
2022/09/09 06:55:15;;;;;;;9.80;5.57;;;;;;;;;;5022504;28;20041;-57
2022/09/09 06:57:41;;;;;;;8.80;4.97;;;;;;;;;;5022255;28;20053;-56
2022/09/09 07:00:08;;;;;;;11.68;5.32;;;;;;;;;;5021954;28;20121;-57
2022/09/09 07:02:38;;;;;;;10.95;5.70;;;;;;;;;;5019747;28;20045;-56
2022/09/09 07:05:05;;;;;;;13.48;6.00;;;;;;;;;;5022475;28;20041;-57
2022/09/09 07:07:31;;;;;;;8.63;5.47;;;;;;;;;;5022157;28;20590;-57
2022/09/09 07:09:57;;;;;;;11.57;5.68;;;;;;;;;;5022768;28;20049;-57
2022/09/09 07:12:23;;;;;;;8.68;4.75;;;;;;;;;;5022145;28;20084;-57
2022/09/09 07:14:49;;;;;;;9.60;5.65;;;;;;;;;;5021095;28;20116;-56
2022/09/09 07:17:15;;;;;;;10.40;5.20;;;;;;;;;;5022137;28;20041;-57
2022/09/09 07:19:43;;;;;;;14.57;4.93;;;;;;;;;;5021344;28;20052;-57
2022/09/09 07:22:10;;;;;;;9.80;4.68;;;;;;;;;;5022127;28;20132;-57
2022/09/09 07:24:37;;;;;;;10.03;5.23;;;;;;;;;;5021885;28;20050;-57
2022/09/09 07:27:03;;;;;;;9.13;4.57;;;;;;;;;;5022140;28;20077;-57
2022/09/09 07:29:29;;;;;;;8.48;4.85;;;;;;;;;;5021593;28;20075;-60
2022/09/09 07:31:55;;;;;;;10.70;5.15;;;;;;;;;;5022440;28;20041;-57
2022/09/09 07:34:21;;;;;;;8.98;5.22;;;;;;;;;;5021495;28;20132;-57
2022/09/09 07:36:48;;;;;;;13.73;4.63;;;;;;;;;;5022205;28;20084;-56
2022/09/09 07:39:14;;;;;;;10.48;4.60;;;;;;;;;;5021522;28;20037;-57
2022/09/09 07:41:43;;;;;;;8.10;4.88;;;;;;;;;;5022083;28;20057;-57
2022/09/09 07:44:10;;;;;;;;;;;;;;;;;;5021585;28;20116;-57
2022/09/09 07:46:39;;;;;;;8.77;4.35;;;;;;;;;;5021920;28;19921;-57
2022/09/09 07:49:05;;;;;;;10.65;4.82;;;;;;;;;;5032882;28;20049;-57
2022/09/09 07:51:33;;;;;;;11.88;4.72;;;;;;;;;;5037523;28;20046;-57
2022/09/09 07:54:01;;;;;;;13.38;5.45;;;;;;;;;;5021658;28;20472;-58
2022/09/09 07:56:28;;;;;;;10.18;4.63;;;;;;;;;;5022500;28;20099;-57
2022/09/09 07:58:55;;;;;;;9.52;4.70;;;;;;;;;;5022583;28;20792;-57
2022/09/09 08:01:23;;;;;;;21.65;6.38;;;;;;;;;;5025768;28;20049;-57
2022/09/09 08:03:54;;;;;;;10.95;5.07;;;;;;;;;;5024589;28;20049;-57
2022/09/09 08:06:20;;;;;;;11.48;5.82;;;;;;;;;;5025085;28;20049;-57
2022/09/09 08:08:50;;;;;;;12.05;5.40;;;;;;;;;;5025509;28;20045;-57
2022/09/09 08:11:16;;;;;;;12.43;5.80;;;;;;;;;;5024699;28;20041;-57
2022/09/09 08:13:43;;;;;;;8.77;5.55;;;;;;;;;;5025084;28;20132;-57
2022/09/09 08:16:11;;;;;;;12.98;5.97;;;;;;;;;;5025096;28;20491;-57
2022/09/09 08:18:38;;;;;;;12.90;5.35;;;;;;;;;;5024566;28;20094;-57
2022/09/09 08:21:06;;;;;;;10.05;5.32;;;;;;;;;;5024842;28;20090;-57
2022/09/09 08:23:33;;;;;;;11.52;5.60;;;;;;;;;;5025249;28;20498;-57
2022/09/09 08:26:05;;;;;;;11.77;6.05;;;;;;;;;;5024327;28;20128;-57
2022/09/09 08:28:31;;;;;;;15.07;6.25;;;;;;;;;;5025096;28;20132;-57
2022/09/09 08:31:05;;;;;;;10.02;5.32;;;;;;;;;;5025268;28;20111;-57
2022/09/09 08:33:32;;;;;;;10.30;5.50;;;;;;;;;;5023725;28;20080;-57
2022/09/09 08:35:58;;;;;;;9.73;5.68;;;;;;;;;;5025564;28;20042;-57
2022/09/09 08:38:24;;;;;;;11.02;5.47;;;;;;;;;;5024440;28;20718;-57
2022/09/09 08:40:55;;;;;;;17.98;6.82;;;;;;;;;;5024777;28;20478;-57
2022/09/09 08:43:22;;;;;;;11.98;5.85;;;;;;;;;;5024854;28;20048;-57
2022/09/09 08:45:59;;;;;;;16.55;6.15;;;;;;;;;;5024347;28;20068;-58
2022/09/09 08:48:49;;;;;;;16.88;5.07;;;;;;;;;;5030667;28;20052;-56
2022/09/09 08:51:16;;;;;;;12.45;5.20;;;;;;;;;;5042337;28;20056;-57
2022/09/09 08:53:44;;;;;;;14.20;4.93;;;;;;;;;;5024422;28;20049;-57
2022/09/09 08:56:13;;;;;;;8.68;4.93;;;;;;;;;;5024245;28;20049;-57
2022/09/09 08:58:44;;;;;;;21.25;5.25;;;;;;;;;;5024516;28;20482;-57
2022/09/09 09:01:10;;;;;;;7.85;4.28;;;;;;;;;;5024447;28;20044;-57
2022/09/09 09:03:37;;;;;;;17.85;4.68;;;;;;;;;;5023704;28;20088;-57
2022/09/09 09:06:07;;;;;;;9.65;3.65;;;;;;;;;;5024220;28;20048;-57
2022/09/09 09:08:38;;;;;;;14.52;4.50;;;;;;;;;;5024227;28;20075;-57
2022/09/09 09:11:05;;;;;;;7.45;4.10;;;;;;;;;;5023753;28;20483;-57
2022/09/09 09:13:38;;;;;;;11.43;3.45;;;;;;;;;;5023287;28;20184;-57
2022/09/09 09:16:18;;;;;;;10.23;4.28;;;;;;;;;;5024099;28;20048;-57
2022/09/09 09:18:44;;;;;;;11.77;3.65;;;;;;;;;;5023104;28;20033;-57
2022/09/09 09:21:18;;;;;;;5.68;3.17;;;;;;;;;;5022971;28;20053;-56
2022/09/09 09:23:57;;;;;;;8.48;3.17;;;;;;;;;;5024106;28;20045;-57
2022/09/09 09:26:26;;;;;;;13.05;3.50;;;;;;;;;;5023979;28;20483;-57
2022/09/09 09:28:56;;;;;;;9.35;2.78;;;;;;;;;;5023980;28;20046;-57
2022/09/09 09:31:23;;;;;;;9.98;2.75;;;;;;;;;;5023825;28;20037;-57
2022/09/09 09:33:52;;;;;;;10.25;3.10;;;;;;;;;;5022212;28;20118;-57
2022/09/09 09:36:19;;;;;;;13.23;2.95;;;;;;;;;;5024016;28;20490;-57
2022/09/09 09:38:53;;;;;;;10.88;2.80;;;;;;;;;;5023377;28;20068;-57
2022/09/09 09:41:29;;;;;;;9.95;2.67;;;;;;;;;;5023965;28;20045;-56
2022/09/09 09:43:55;;;;;;;9.20;2.80;;;;;;;;;;5023038;28;20120;-57
2022/09/09 09:46:23;;;;;;;9.82;2.40;;;;;;;;;;5022358;28;20087;-57
2022/09/09 09:48:57;;;;;;;10.93;2.73;;;;;;;;;;5032535;28;20045;-57
2022/09/09 09:51:24;;;;;;;6.85;2.25;;;;;;;;;;5026501;28;20048;-57
2022/09/09 09:53:53;;;;;;;10.93;2.45;;;;;;;;;;5022794;28;20090;-57
2022/09/09 09:56:27;;;;;;;6.03;2.08;;;;;;;;;;5022720;28;20065;-57
2022/09/09 09:58:54;;;;;;;7.72;2.20;;;;;;;;;;5022700;28;20750;-57
2022/09/09 10:01:27;;;;;;;8.13;2.10;;;;;;;;;;5041435;28;20044;-57
2022/09/09 10:03:54;;;;;;;9.88;1.90;;;;;;;;;;5042103;28;20044;-57
2022/09/09 10:06:30;;;;;;;16.13;2.67;;;;;;;;;;5043184;28;20041;-57
2022/09/09 10:08:56;;;;;;;10.20;1.95;;;;;;;;;;5043538;28;20493;-57
2022/09/09 10:11:45;;;;;;;10.98;2.65;;;;;;;;;;5042546;28;20049;-58
2022/09/09 10:14:21;;;;;;;7.35;1.83;;;;;;;;;;5042777;28;20048;-57
2022/09/09 10:16:54;;;;;;;7.78;2.05;;;;;;;;;;5042118;28;20129;-57
2022/09/09 10:19:21;;;;;;;7.85;2.03;;;;;;;;;;5043009;28;20033;-57
2022/09/09 10:21:58;;;;;;;7.75;1.90;;;;;;;;;;5042161;28;20083;-57
2022/09/09 10:24:31;;;;;;;9.57;1.65;;;;;;;;;;5043127;28;20041;-57
2022/09/09 10:27:12;;;;;;;6.05;1.80;;;;;;;;;;5042635;28;20044;-57
2022/09/09 10:29:40;;;;;;;7.07;1.80;;;;;;;;;;5042556;28;20133;-57
2022/09/09 10:32:14;;;;;;;8.68;2.35;;;;;;;;;;5041596;28;20041;-57
2022/09/09 10:34:44;;;;;;;11.68;2.10;;;;;;;;;;5042658;28;20106;-57
2022/09/09 10:37:35;;;;;;;10.15;2.05;;;;;;;;;;5042299;28;20080;-56
2022/09/09 10:40:25;;;;;;;10.05;1.88;;;;;;;;;;5042460;28;20591;-58
2022/09/09 10:42:54;;;;;;;6.93;1.90;;;;;;;;;;5042376;28;20048;-58
2022/09/09 10:45:34;;;;;;;14.80;2.20;;;;;;;;;;5042355;28;20091;-57
2022/09/09 10:48:00;;;;;;;5.13;1.33;;;;;;;;;;5041162;28;20049;-58
2022/09/09 10:50:38;;;;;;;6.20;1.27;;;;;;;;;;5033493;28;20057;-58
2022/09/09 10:53:09;;;;;;;7.07;1.60;;;;;;;;;;5022443;28;20045;-58
2022/09/09 10:55:39;;;;;;;4.47;1.38;;;;;;;;;;5022342;28;20053;-57
2022/09/09 10:58:07;;;;;;;8.82;1.67;;;;;;;;;;5022469;28;20041;-57
2022/09/09 11:00:43;;;;;;;7.03;1.55;;;;;;;;;;5022220;28;20053;-57
2022/09/09 11:03:16;;;;;;;5.10;1.80;;;;;;;;;;5021236;28;20079;-57
2022/09/09 11:05:45;;;;;;;5.80;1.20;;;;;;;;;;5020085;28;20080;-58
2022/09/09 11:08:11;;;;;;;;;;;;;;;;;;5020388;28;20096;-57
2022/09/09 11:10:45;;;;;;;7.00;1.45;;;;;;;;;;5019765;28;20328;-58
2022/09/09 11:13:25;;;;;;;8.30;1.75;;;;;;;;;;5019124;28;20057;-57
2022/09/09 11:15:57;;;;;;;10.55;1.83;;;;;;;;;;5019840;28;20401;-57
2022/09/09 11:18:23;;;;;;;6.55;1.63;;;;;;;;;;5018835;28;20136;-57
2022/09/09 11:20:52;;;;;;;6.13;1.30;;;;;;;;;;5019862;28;20083;-57
2022/09/09 11:23:22;;;;;;;15.02;1.85;;;;;;;;;;5019797;28;20042;-57
2022/09/09 11:25:55;;;;;;;13.63;1.80;;;;;;;;;;5019614;28;20857;-57
2022/09/09 11:28:30;;;;;;;12.55;1.80;;;;;;;;;;5019429;28;20057;-57
2022/09/09 11:31:02;;;;;;;8.25;1.58;;;;;;;;;;5020127;28;20045;-57
2022/09/09 11:33:29;;;;;;;12.02;1.83;;;;;;;;;;5024296;28;20598;-57
2022/09/09 11:36:25;;;;;;;6.00;1.40;;;;;;;;;;5026017;28;20725;-57
2022/09/09 11:38:52;;;;;;;5.65;1.42;;;;;;;;;;5025614;28;20075;-57
2022/09/09 11:41:20;;;;;;;7.05;1.60;;;;;;;;;;5026114;28;20048;-57
2022/09/09 11:43:48;;;;;;;9.20;1.70;;;;;;;;;;5025656;28;20132;-57
2022/09/09 11:46:17;;;;;;;6.63;1.60;;;;;;;;;;5045316;28;20037;-57
2022/09/09 11:48:45;;;;;;;8.30;1.90;;;;;;;;;;5044135;28;20055;-57
2022/09/09 11:51:12;;;;;;;;;;;;;;;;;;5030101;28;20041;-58
2022/09/09 11:53:49;;;;;;;11.82;1.85;;;;;;;;;;5025678;28;19921;-57
2022/09/09 11:56:26;;;;;;;7.53;1.37;;;;;;;;;;5025277;28;20093;-57
2022/09/09 11:59:03;;;;;;;7.32;1.70;;;;;;;;;;5025504;28;20061;-57
2022/09/09 12:01:33;;;;;;;4.90;1.30;;;;;;;;;;5025073;28;20477;-60
2022/09/09 12:04:09;;;;;;;8.80;1.65;;;;;;;;;;5025000;28;20044;-61
2022/09/09 12:06:43;;;;;;;13.10;1.33;;;;;;;;;;5025171;28;20562;-57
2022/09/09 12:09:17;;;;;;;7.30;1.70;;;;;;;;;;5025593;28;20060;-58
2022/09/09 12:11:43;;;;;;;8.13;1.52;;;;;;;;;;5025010;28;20257;-57
2022/09/09 12:14:21;;;;;;;5.40;1.00;;;;;;;;;;5024612;28;20491;-58
2022/09/09 12:16:47;;;;;;;10.90;1.60;;;;;;;;;;5026317;28;20084;-57
2022/09/09 12:19:15;;;;;;;5.85;1.63;;;;;;;;;;5044862;28;20544;-57
2022/09/09 12:21:52;;;;;;;6.93;1.52;;;;;;;;;;5029818;28;20041;-57
2022/09/09 12:24:22;;;;;;;5.43;1.38;;;;;;;;;;5025179;28;20441;-58
2022/09/09 12:26:55;;;;;;;5.68;1.20;;;;;;;;;;5024515;28;20445;-57
2022/09/09 12:29:34;;;;;;;6.25;1.25;;;;;;;;;;5025092;28;20038;-57
2022/09/09 12:32:06;;;;;;;9.00;1.40;;;;;;;;;;5032253;28;20537;-58
2022/09/09 12:34:36;;;;;;;5.75;1.27;;;;;;;;;;5031849;28;20042;-58
2022/09/09 12:37:06;;;;;;;6.18;1.17;;;;;;;;;;5041822;28;20040;-57
2022/09/09 12:39:35;;;;;;;5.07;1.10;;;;;;;;;;5041797;28;20102;-58
2022/09/09 12:42:03;;;;;;;6.82;1.20;;;;;;;;;;5041623;28;20558;-58
2022/09/09 12:44:29;;;;;;;;;;;;;;;;;;5041742;28;20057;-58
2022/09/09 12:46:59;;;;;;;5.50;1.23;;;;;;;;;;5029530;28;20625;-58
2022/09/09 12:49:26;;;;;;;6.03;1.33;;;;;;;;;;5030802;28;20049;-58
2022/09/09 12:51:52;;;;;;;7.88;1.55;;;;;;;;;;5040334;28;20072;-58
2022/09/09 12:54:20;;;;;;;6.28;1.08;;;;;;;;;;5040492;28;20041;-57
2022/09/09 12:56:47;;;;;;;8.60;1.33;;;;;;;;;;5037635;28;20224;-58
2022/09/09 12:59:23;;;;;;;6.07;1.50;;;;;;;;;;5033555;28;20041;-58
2022/09/09 13:01:55;;;;;;;10.32;1.38;;;;;;;;;;5040942;28;20037;-58
2022/09/09 13:04:22;;;;;;;6.63;1.40;;;;;;;;;;5041620;28;20072;-58
2022/09/09 13:06:49;;;;;;;6.90;1.45;;;;;;;;;;5048145;28;20066;-58
2022/09/09 13:09:15;;;;;;;6.25;1.90;;;;;;;;;;5041439;28;20072;-58
2022/09/09 13:11:47;;;;;;;6.20;1.60;;;;;;;;;;5041547;28;20144;-58
2022/09/09 13:14:20;;;;;;;5.25;1.40;;;;;;;;;;5041413;28;20061;-58
2022/09/09 13:16:55;;;;;;;5.35;1.50;;;;;;;;;;5040867;28;20821;-58
2022/09/09 13:19:22;;;;;;;7.70;1.50;;;;;;;;;;5041591;28;20079;-58
2022/09/09 13:21:48;;;;;;;8.50;1.85;;;;;;;;;;5041423;28;20175;-58
2022/09/09 13:24:28;;;;;;;4.95;1.20;;;;;;;;;;5034879;28;20150;-58
2022/09/09 13:26:56;;;;;;;8.43;1.33;;;;;;;;;;5037862;28;20138;-58
2022/09/09 13:29:22;;;;;;;4.97;1.55;;;;;;;;;;5039515;28;20063;-58
2022/09/09 13:31:52;;;;;;;5.03;1.40;;;;;;;;;;5033247;28;20630;-58
2022/09/09 13:34:29;;;;;;;4.22;1.20;;;;;;;;;;5041417;28;20052;-58
2022/09/09 13:37:01;;;;;;;8.90;0.95;;;;;;;;;;5035390;28;20102;-58
2022/09/09 13:39:27;;;;;;;7.38;0.90;;;;;;;;;;5047305;28;20048;-58
2022/09/09 13:41:53;;;;;;;6.30;0.80;;;;;;;;;;5040668;28;20041;-58
2022/09/09 13:44:23;;;;;;;6.93;0.85;;;;;;;;;;5040781;28;20045;-58
2022/09/09 13:47:00;;;;;;;8.70;1.17;;;;;;;;;;5039601;28;20041;-58
2022/09/09 13:49:28;;;;;;;17.00;1.70;;;;;;;;;;5039075;28;20114;-58
2022/09/09 13:51:55;;;;;;;;;;;;;;;;;;5021695;28;20045;-57
2022/09/09 13:54:22;;;;;;;8.20;0.80;;;;;;;;;;5020853;28;19925;-58
2022/09/09 13:56:49;;;;;;;6.50;0.57;;;;;;;;;;5020632;28;20049;-58
2022/09/09 13:59:19;;;;;;;3.53;0.35;;;;;;;;;;5020342;28;20096;-57
2022/09/09 14:01:45;;;;;;;6.30;0.70;;;;;;;;;;5019437;28;20044;-57
2022/09/09 14:04:12;;;;;;;2.67;0.63;;;;;;;;;;5020079;28;20041;-58
2022/09/09 14:06:39;;;;;;;5.03;0.80;;;;;;;;;;5036946;28;20052;-58
2022/09/09 14:09:06;;;;;;;7.00;0.93;;;;;;;;;;5040257;28;20768;-58
2022/09/09 14:11:33;;;;;;;4.00;1.10;;;;;;;;;;5039850;28;20049;-58
2022/09/09 14:14:00;;;;;;;7.07;0.80;;;;;;;;;;5040526;28;20067;-61
2022/09/09 14:16:27;;;;;;;3.22;1.00;;;;;;;;;;5040100;28;20049;-58
2022/09/09 14:18:56;;;;;;;6.00;1.17;;;;;;;;;;5039393;28;20048;-58
2022/09/09 14:21:22;;;;;;;5.82;0.90;;;;;;;;;;5040268;28;20041;-57
2022/09/09 14:23:48;;;;;;;4.57;1.13;;;;;;;;;;5039888;28;20041;-58
2022/09/09 14:26:15;;;;;;;5.50;1.63;;;;;;;;;;5038352;28;20049;-58
2022/09/09 14:28:42;;;;;;;6.28;0.70;;;;;;;;;;5036584;28;20048;-58
2022/09/09 14:31:10;;;;;;;0.90;0.40;;;;;;;;;;5039080;28;20501;-59
2022/09/09 14:33:36;;;;;;;1.92;0.47;;;;;;;;;;5038857;28;20052;-58
2022/09/09 14:36:03;;;;;;;2.47;0.65;;;;;;;;;;5039196;28;20071;-58
2022/09/09 14:38:31;;;;;;;1.27;0.50;;;;;;;;;;5039925;28;20045;-58
2022/09/09 14:40:58;;;;;;;2.78;0.60;;;;;;;;;;5040414;28;20051;-58
2022/09/09 14:43:24;;;;;;;3.30;0.45;;;;;;;;;;5040509;28;20111;-58
2022/09/09 14:45:51;;;;;;;3.75;0.63;;;;;;;;;;5036412;28;20036;-58
2022/09/09 14:48:19;;;;;;;2.17;0.52;;;;;;;;;;5036895;28;20067;-58
2022/09/09 14:50:45;;;;;;;2.83;0.50;;;;;;;;;;5037272;28;20527;-58